createdAt,value
2023-05-07T00:00:16.899Z,62.25
2023-05-07T00:01:20.126Z,62.41
2023-05-07T00:02:22.142Z,62.11
2023-05-07T00:03:23.865Z,62.73
2023-05-07T00:04:26.009Z,62.19
2023-05-07T00:05:27.817Z,62.25
2023-05-07T00:06:30.040Z,61.81
2023-05-07T00:07:31.845Z,62.60
2023-05-07T00:08:33.409Z,62.70
2023-05-07T00:09:35.251Z,63.15
2023-05-07T00:10:37.200Z,62.61
2023-05-07T00:11:38.748Z,63.00
2023-05-07T00:12:41.894Z,63.17
2023-05-07T00:13:43.520Z,63.37
2023-05-07T00:14:45.087Z,63.86
2023-05-07T00:15:46.623Z,64.42
2023-05-07T00:16:48.244Z,65.19
2023-05-07T00:17:49.908Z,65.52
2023-05-07T00:18:51.465Z,65.57
2023-05-07T00:19:53.137Z,65.18
2023-05-07T00:20:54.988Z,64.98
2023-05-07T00:21:57.459Z,65.21
2023-05-07T00:22:59.058Z,65.35
2023-05-07T00:24:00.658Z,64.99
2023-05-07T00:25:02.175Z,64.78
2023-05-07T00:26:04.788Z,64.54
2023-05-07T00:27:06.480Z,64.61
2023-05-07T00:28:08.036Z,64.37
2023-05-07T00:29:09.624Z,64.88
2023-05-07T00:30:11.927Z,64.74
2023-05-07T00:31:13.815Z,64.38
2023-05-07T00:32:15.813Z,64.26
2023-05-07T00:33:17.483Z,64.67
2023-05-07T00:34:19.961Z,64.61
2023-05-07T00:35:21.635Z,64.79
2023-05-07T00:36:23.253Z,64.70
2023-05-07T00:37:24.888Z,64.31
2023-05-07T00:38:26.498Z,64.62
2023-05-07T00:39:28.047Z,65.00
2023-05-07T00:40:29.640Z,64.45
2023-05-07T00:41:33.994Z,64.69
2023-05-07T00:42:35.614Z,64.51
2023-05-07T00:43:37.213Z,64.89
2023-05-07T00:44:38.822Z,64.77
2023-05-07T00:45:40.466Z,64.79
2023-05-07T00:46:42.075Z,65.29
2023-05-07T00:47:44.509Z,64.90
2023-05-07T00:48:46.307Z,64.76
2023-05-07T00:49:47.909Z,64.72
2023-05-07T00:50:49.494Z,64.95
2023-05-07T00:51:51.480Z,64.64
2023-05-07T00:52:53.877Z,64.97
2023-05-07T00:53:55.606Z,65.34
2023-05-07T00:54:57.262Z,65.75
2023-05-07T00:55:58.961Z,65.62
2023-05-07T00:57:01.364Z,65.98
2023-05-07T00:58:03.019Z,66.18
2023-05-07T00:59:04.728Z,67.25
2023-05-07T01:00:08.839Z,68.39
2023-05-07T01:01:10.606Z,69.07
2023-05-07T01:02:12.698Z,69.89
2023-05-07T01:03:14.244Z,70.81
2023-05-07T01:04:16.377Z,70.72
2023-05-07T01:05:21.218Z,71.36
2023-05-07T01:06:26.680Z,71.66
2023-05-07T01:07:30.357Z,71.54
2023-05-07T01:08:33.046Z,71.30
2023-05-07T01:09:36.423Z,71.41
2023-05-07T01:10:38.074Z,71.88
2023-05-07T01:11:40.799Z,72.08
2023-05-07T01:12:43.840Z,72.26
2023-05-07T01:13:45.958Z,72.30
2023-05-07T01:14:47.714Z,72.41
2023-05-07T01:15:49.281Z,72.63
2023-05-07T01:16:52.200Z,73.17
2023-05-07T01:17:54.165Z,74.10
2023-05-07T01:18:56.210Z,75.25
2023-05-07T01:19:57.794Z,75.15
2023-05-07T01:21:00.820Z,75.46
2023-05-07T01:22:08.421Z,76.15
2023-05-07T01:23:12.484Z,76.23
2023-05-07T01:24:14.447Z,76.78
2023-05-07T01:25:17.658Z,77.57
2023-05-07T01:26:20.680Z,77.19
2023-05-07T01:27:22.257Z,77.41
2023-05-07T01:28:23.840Z,78.33
2023-05-07T01:29:25.361Z,78.33
2023-05-07T01:30:27.589Z,78.77
2023-05-07T01:31:30.019Z,78.17
2023-05-07T01:32:50.250Z,78.11
2023-05-07T01:33:53.403Z,77.26
2023-05-07T01:34:56.365Z,76.88
2023-05-07T01:36:01.286Z,76.80
2023-05-07T01:37:03.865Z,76.40
2023-05-07T01:38:07.173Z,76.14
2023-05-07T01:39:10.426Z,75.96
2023-05-07T01:40:12.536Z,76.24
2023-05-07T01:41:14.440Z,75.98
2023-05-07T01:42:16.222Z,75.56
2023-05-07T01:43:18.464Z,75.71
2023-05-07T01:44:20.705Z,75.53
2023-05-07T01:45:22.551Z,75.12
2023-05-07T01:46:24.615Z,74.98
2023-05-07T01:47:26.908Z,74.65
2023-05-07T01:48:29.281Z,74.48
2023-05-07T01:49:31.516Z,74.89
2023-05-07T01:50:33.467Z,74.24
2023-05-07T01:51:35.552Z,74.03
2023-05-07T01:52:40.095Z,73.52
2023-05-07T01:53:41.793Z,73.50
2023-05-07T01:54:43.710Z,73.51
2023-05-07T01:55:46.237Z,72.99
2023-05-07T01:56:49.945Z,72.74
2023-05-07T01:57:51.520Z,73.18
2023-05-07T01:58:53.360Z,72.54
2023-05-07T01:59:54.878Z,72.50
2023-05-07T02:00:56.428Z,72.32
2023-05-07T02:01:58.001Z,71.83
2023-05-07T02:02:59.748Z,72.01
2023-05-07T02:04:01.557Z,71.63
2023-05-07T02:05:03.282Z,71.81
2023-05-07T02:06:04.879Z,71.13
2023-05-07T02:07:06.527Z,71.05
2023-05-07T02:08:08.047Z,70.95
2023-05-07T02:09:12.792Z,70.81
2023-05-07T02:10:14.395Z,70.63
2023-05-07T02:11:16.104Z,70.79
2023-05-07T02:12:17.617Z,70.30
2023-05-07T02:13:19.322Z,70.36
2023-05-07T02:14:21.643Z,70.62
2023-05-07T02:15:23.182Z,70.29
2023-05-07T02:16:25.066Z,69.92
2023-05-07T02:17:27.035Z,70.03
2023-05-07T02:18:28.654Z,70.26
2023-05-07T02:19:30.196Z,70.33
2023-05-07T02:20:31.898Z,70.55
2023-05-07T02:21:33.442Z,70.66
2023-05-07T02:22:35.105Z,70.02
2023-05-07T02:23:36.714Z,70.10
2023-05-07T02:24:38.241Z,71.09
2023-05-07T02:25:39.916Z,71.64
2023-05-07T02:26:42.431Z,71.75
2023-05-07T02:27:43.995Z,71.63
2023-05-07T02:28:45.562Z,72.04
2023-05-07T02:29:47.090Z,71.34
2023-05-07T02:30:48.639Z,72.68
2023-05-07T02:31:54.094Z,74.24
2023-05-07T02:32:55.962Z,75.83
2023-05-07T02:33:57.553Z,76.41
2023-05-07T02:34:59.112Z,77.35
2023-05-07T02:36:13.442Z,77.41
2023-05-07T02:37:14.991Z,77.09
2023-05-07T02:38:16.538Z,77.52
2023-05-07T02:39:18.104Z,78.88
2023-05-07T02:40:19.761Z,78.73
2023-05-07T02:41:21.583Z,79.45
2023-05-07T02:42:23.155Z,79.11
2023-05-07T02:43:24.708Z,79.66
2023-05-07T02:44:26.449Z,80.05
2023-05-07T02:45:28.019Z,80.21
2023-05-07T02:46:29.614Z,80.20
2023-05-07T02:47:31.253Z,79.90
2023-05-07T02:48:33.063Z,79.94
2023-05-07T02:49:35.001Z,79.15
2023-05-07T02:50:36.539Z,78.68
2023-05-07T02:51:38.129Z,78.40
2023-05-07T02:52:39.796Z,77.64
2023-05-07T02:53:41.460Z,77.12
2023-05-07T02:54:43.019Z,76.97
2023-05-07T02:55:44.951Z,76.36
2023-05-07T02:56:46.468Z,76.34
2023-05-07T02:57:48.030Z,76.22
2023-05-07T02:58:49.605Z,75.81
2023-05-07T02:59:51.852Z,75.30
2023-05-07T03:00:53.968Z,74.94
2023-05-07T03:01:55.652Z,74.58
2023-05-07T03:02:57.394Z,73.72
2023-05-07T03:03:59.006Z,73.52
2023-05-07T03:05:00.576Z,73.34
2023-05-07T03:06:02.625Z,73.02
2023-05-07T03:07:04.175Z,72.56
2023-05-07T03:08:05.750Z,72.35
2023-05-07T03:09:07.317Z,71.94
2023-05-07T03:10:09.408Z,71.81
2023-05-07T03:11:11.281Z,71.20
2023-05-07T03:12:12.788Z,71.30
2023-05-07T03:13:14.437Z,71.03
2023-05-07T03:14:16.014Z,71.02
2023-05-07T03:15:17.889Z,71.41
2023-05-07T03:16:19.526Z,71.76
2023-05-07T03:17:22.071Z,71.38
2023-05-07T03:18:23.782Z,71.75
2023-05-07T03:19:25.340Z,71.58
2023-05-07T03:20:27.016Z,71.11
2023-05-07T03:21:28.616Z,70.49
2023-05-07T03:22:30.327Z,69.91
2023-05-07T03:23:31.927Z,70.13
2023-05-07T03:24:33.578Z,70.93
2023-05-07T03:25:35.296Z,70.91
2023-05-07T03:26:36.839Z,70.86
2023-05-07T03:27:39.117Z,71.36
2023-05-07T03:28:40.727Z,72.10
2023-05-07T03:29:42.273Z,72.57
2023-05-07T03:30:45.137Z,73.21
2023-05-07T03:31:46.893Z,73.69
2023-05-07T03:32:48.661Z,74.67
2023-05-07T03:33:55.701Z,75.53
2023-05-07T03:34:57.426Z,75.95
2023-05-07T03:35:58.942Z,76.22
2023-05-07T03:37:01.242Z,76.28
2023-05-07T03:38:02.812Z,76.38
2023-05-07T03:39:04.387Z,77.42
2023-05-07T03:40:06.950Z,78.97
2023-05-07T03:41:08.571Z,79.42
2023-05-07T03:42:10.267Z,79.40
2023-05-07T03:43:11.837Z,79.52
2023-05-07T03:44:13.350Z,80.26
2023-05-07T03:45:14.968Z,80.46
2023-05-07T03:46:16.612Z,80.84
2023-05-07T03:47:18.252Z,81.18
2023-05-07T03:48:19.878Z,82.13
2023-05-07T03:49:21.391Z,82.84
2023-05-07T03:50:22.984Z,83.08
2023-05-07T03:51:24.600Z,82.97
2023-05-07T03:52:27.131Z,83.20
2023-05-07T03:53:28.721Z,83.15
2023-05-07T03:54:31.426Z,82.71
2023-05-07T03:55:32.965Z,82.88
2023-05-07T03:56:34.465Z,82.79
2023-05-07T03:57:36.097Z,81.44
2023-05-07T03:58:37.606Z,81.15
2023-05-07T03:59:39.119Z,80.07
2023-05-07T04:00:41.576Z,79.87
2023-05-07T04:01:43.164Z,80.03
2023-05-07T04:02:44.853Z,79.36
2023-05-07T04:03:46.673Z,80.09
2023-05-07T04:04:50.216Z,80.43
2023-05-07T04:05:51.796Z,80.07
2023-05-07T04:06:54.035Z,79.94
2023-05-07T04:07:55.592Z,79.81
2023-05-07T04:08:57.178Z,79.34
2023-05-07T04:09:58.862Z,79.46
2023-05-07T04:11:01.305Z,78.84
2023-05-07T04:12:03.221Z,78.49
2023-05-07T04:13:04.856Z,78.31
2023-05-07T04:14:06.717Z,77.86
2023-05-07T04:15:08.762Z,77.77
2023-05-07T04:16:10.406Z,77.76
2023-05-07T04:17:12.027Z,77.48
2023-05-07T04:18:13.574Z,77.40
2023-05-07T04:19:15.258Z,77.10
2023-05-07T04:20:18.681Z,77.86
2023-05-07T04:21:21.685Z,78.48
2023-05-07T04:22:23.174Z,79.23
2023-05-07T04:23:24.756Z,79.15
2023-05-07T04:24:26.290Z,78.67
2023-05-07T04:25:27.868Z,77.98
2023-05-07T04:26:29.454Z,77.55
2023-05-07T04:27:31.016Z,76.97
2023-05-07T04:28:32.554Z,76.22
2023-05-07T04:29:34.097Z,75.58
2023-05-07T04:30:35.684Z,75.30
2023-05-07T04:31:37.284Z,74.45
2023-05-07T04:32:40.061Z,74.50
2023-05-07T04:33:41.688Z,74.37
2023-05-07T04:34:43.413Z,74.17
2023-05-07T04:35:45.111Z,73.29
2023-05-07T04:36:47.247Z,72.04
2023-05-07T04:37:48.884Z,71.60
2023-05-07T04:38:50.580Z,71.20
2023-05-07T04:39:52.115Z,70.56
2023-05-07T04:40:53.987Z,70.42
2023-05-07T04:41:55.608Z,69.93
2023-05-07T04:42:57.136Z,69.82
2023-05-07T04:43:59.925Z,69.21
2023-05-07T04:45:02.081Z,69.23
2023-05-07T04:46:03.634Z,68.43
2023-05-07T04:47:05.542Z,68.23
2023-05-07T04:48:07.119Z,68.37
2023-05-07T04:49:08.691Z,68.18
2023-05-07T04:50:10.768Z,67.21
2023-05-07T04:51:12.442Z,66.86
2023-05-07T04:52:13.959Z,66.37
2023-05-07T04:53:15.641Z,66.47
2023-05-07T04:54:17.191Z,66.34
2023-05-07T04:55:18.845Z,66.08
2023-05-07T04:56:21.375Z,65.61
2023-05-07T04:57:22.947Z,65.75
2023-05-07T04:58:25.001Z,66.06
2023-05-07T04:59:26.589Z,66.75
2023-05-07T05:00:28.132Z,66.99
2023-05-07T05:01:29.856Z,66.53
2023-05-07T05:02:31.459Z,66.89
2023-05-07T05:03:33.384Z,67.10
2023-05-07T05:04:35.008Z,65.49
2023-05-07T05:05:36.800Z,66.10
2023-05-07T05:06:38.320Z,66.14
2023-05-07T05:07:39.836Z,65.38
2023-05-07T05:08:41.343Z,63.38
2023-05-07T05:09:42.856Z,63.59
2023-05-07T05:10:44.505Z,63.50
2023-05-07T05:11:46.222Z,64.20
2023-05-07T05:12:47.911Z,63.87
2023-05-07T05:13:50.540Z,61.73
2023-05-07T05:14:52.208Z,62.15
2023-05-07T05:15:53.789Z,61.88
2023-05-07T05:16:55.381Z,61.92
2023-05-07T05:17:56.965Z,61.28
2023-05-07T05:18:58.591Z,61.19
2023-05-07T05:20:00.249Z,61.18
2023-05-07T05:21:01.825Z,61.53
2023-05-07T05:22:04.880Z,61.79
2023-05-07T05:23:07.065Z,60.69
2023-05-07T05:24:08.846Z,60.30
2023-05-07T05:25:10.550Z,60.47
2023-05-07T05:26:12.459Z,60.08
2023-05-07T05:27:14.010Z,59.92
2023-05-07T05:28:15.594Z,60.38
2023-05-07T05:29:17.155Z,60.08
2023-05-07T05:30:19.574Z,59.50
2023-05-07T05:31:22.406Z,59.62
2023-05-07T05:32:23.993Z,59.78
2023-05-07T05:33:25.628Z,59.95
2023-05-07T05:34:27.142Z,58.86
2023-05-07T05:35:28.796Z,58.53
2023-05-07T05:36:31.653Z,58.03
2023-05-07T05:37:33.268Z,56.98
2023-05-07T05:38:34.892Z,57.25
2023-05-07T05:39:36.700Z,56.17
2023-05-07T05:40:38.303Z,56.85
2023-05-07T05:41:39.977Z,57.16
2023-05-07T05:42:41.477Z,56.90
2023-05-07T05:43:43.029Z,56.83
2023-05-07T05:44:44.717Z,55.96
2023-05-07T05:45:46.361Z,55.61
2023-05-07T05:46:48.118Z,55.99
2023-05-07T05:47:49.975Z,56.46
2023-05-07T05:48:51.594Z,56.70
2023-05-07T05:49:53.146Z,56.45
2023-05-07T05:50:54.705Z,56.48
2023-05-07T05:51:57.004Z,55.82
2023-05-07T05:53:00.483Z,56.22
2023-05-07T05:54:02.142Z,56.03
2023-05-07T05:55:03.932Z,56.05
2023-05-07T05:56:05.996Z,55.41
2023-05-07T05:57:07.618Z,55.53
2023-05-07T05:58:10.302Z,55.15
2023-05-07T05:59:12.043Z,55.86
2023-05-07T06:00:14.214Z,54.67
2023-05-07T06:02:18.999Z,54.92
2023-05-07T06:03:20.686Z,54.91
2023-05-07T06:04:22.341Z,54.03
2023-05-07T06:05:23.919Z,53.68
2023-05-07T06:06:25.540Z,54.00
2023-05-07T06:07:27.045Z,54.22
2023-05-07T06:08:31.837Z,53.49
2023-05-07T06:09:33.392Z,53.75
2023-05-07T06:10:36.532Z,54.68
2023-05-07T06:11:38.210Z,55.81
2023-05-07T06:12:41.042Z,55.95
2023-05-07T06:13:42.590Z,56.06
2023-05-07T06:14:44.882Z,55.42
2023-05-07T06:15:46.401Z,55.73
2023-05-07T06:16:48.086Z,56.49
2023-05-07T06:17:50.343Z,57.34
2023-05-07T06:18:51.967Z,56.80
2023-05-07T06:19:53.569Z,56.45
2023-05-07T06:20:55.110Z,54.91
2023-05-07T06:21:59.360Z,54.51
2023-05-07T06:23:01.043Z,54.10
2023-05-07T06:24:03.230Z,53.59
2023-05-07T06:25:05.142Z,53.43
2023-05-07T06:26:06.704Z,52.74
2023-05-07T06:27:08.287Z,53.00
2023-05-07T06:28:12.233Z,52.50
2023-05-07T06:29:13.792Z,52.10
2023-05-07T06:30:15.488Z,52.91
2023-05-07T06:31:18.682Z,52.82
2023-05-07T06:32:20.589Z,53.17
2023-05-07T06:33:22.161Z,53.47
2023-05-07T06:34:23.716Z,53.73
2023-05-07T06:35:25.309Z,54.62
2023-05-07T06:36:27.481Z,54.60
2023-05-07T06:37:29.041Z,54.31
2023-05-07T06:38:30.769Z,54.11
2023-05-07T06:39:32.796Z,53.46
2023-05-07T06:40:34.385Z,54.50
2023-05-07T06:41:36.651Z,54.88
2023-05-07T06:42:38.732Z,53.65
2023-05-07T06:43:40.509Z,53.19
2023-05-07T06:44:42.077Z,53.62
2023-05-07T06:45:43.656Z,53.20
2023-05-07T06:46:45.254Z,52.56
2023-05-07T06:47:47.013Z,52.13
2023-05-07T06:48:48.579Z,52.10
2023-05-07T06:49:50.288Z,50.88
2023-05-07T06:50:52.135Z,51.33
2023-05-07T06:51:53.854Z,50.17
2023-05-07T06:52:55.517Z,50.12
2023-05-07T06:53:57.069Z,50.31
2023-05-07T06:54:58.691Z,50.71
2023-05-07T06:56:00.283Z,51.13
2023-05-07T06:57:01.844Z,51.89
2023-05-07T06:58:03.429Z,51.68
2023-05-07T06:59:04.997Z,51.38
2023-05-07T07:00:10.321Z,50.63
2023-05-07T07:01:12.281Z,50.33
2023-05-07T07:02:13.848Z,50.06
2023-05-07T07:03:15.728Z,49.83
2023-05-07T07:04:17.316Z,49.17
2023-05-07T07:05:18.988Z,49.18
2023-05-07T07:06:21.126Z,48.36
2023-05-07T07:07:22.860Z,47.29
2023-05-07T07:08:24.517Z,46.94
2023-05-07T07:09:26.038Z,46.93
2023-05-07T07:10:27.591Z,46.54
2023-05-07T07:11:32.428Z,47.53
2023-05-07T07:12:33.956Z,47.53
2023-05-07T07:13:35.517Z,46.90
2023-05-07T07:14:37.224Z,48.57
2023-05-07T07:15:38.889Z,49.70
2023-05-07T07:16:43.410Z,49.82
2023-05-07T07:17:44.975Z,49.15
2023-05-07T07:18:46.556Z,49.22
2023-05-07T07:19:48.161Z,49.23
2023-05-07T07:20:49.825Z,50.00
2023-05-07T07:21:51.379Z,49.00
2023-05-07T07:22:52.945Z,48.72
2023-05-07T07:23:54.566Z,49.17
2023-05-07T07:24:56.192Z,49.85
2023-05-07T07:25:57.820Z,49.88
2023-05-07T07:28:28.354Z,49.13
2023-05-07T07:29:29.943Z,49.19
2023-05-07T07:30:31.678Z,48.72
2023-05-07T07:31:33.328Z,48.76
2023-05-07T07:32:35.772Z,48.79
2023-05-07T07:33:37.518Z,49.12
2023-05-07T07:34:39.073Z,49.15
2023-05-07T07:35:40.633Z,47.14
2023-05-07T07:36:46.279Z,47.78
2023-05-07T07:37:50.913Z,48.28
2023-05-07T07:38:52.584Z,47.16
2023-05-07T07:39:54.180Z,47.43
2023-05-07T07:40:55.941Z,47.47
2023-05-07T07:41:57.478Z,47.24
2023-05-07T07:42:59.735Z,46.91
2023-05-07T07:44:01.319Z,46.77
2023-05-07T07:45:03.804Z,46.33
2023-05-07T07:46:05.346Z,44.81
2023-05-07T07:47:07.002Z,45.37
2023-05-07T07:48:08.680Z,45.32
2023-05-07T07:49:10.353Z,45.54
2023-05-07T07:50:16.527Z,45.01
2023-05-07T07:51:23.656Z,45.04
2023-05-07T07:52:25.386Z,44.34
2023-05-07T07:53:26.950Z,44.16
2023-05-07T07:54:28.586Z,43.38
2023-05-07T07:55:30.131Z,43.66
2023-05-07T07:56:34.378Z,43.96
2023-05-07T07:57:35.971Z,44.55
2023-05-07T07:58:38.830Z,44.37
2023-05-07T07:59:40.724Z,44.56
2023-05-07T08:00:42.423Z,44.59
2023-05-07T08:01:43.967Z,43.84
2023-05-07T08:02:45.876Z,44.76
2023-05-07T08:03:47.570Z,45.43
2023-05-07T08:04:49.140Z,45.22
2023-05-07T08:05:52.186Z,44.58
2023-05-07T08:06:55.329Z,44.86
2023-05-07T08:07:56.934Z,44.63
2023-05-07T08:08:58.567Z,45.58
2023-05-07T08:10:00.170Z,44.85
2023-05-07T08:11:02.039Z,45.42
2023-05-07T08:12:03.923Z,43.95
2023-05-07T08:13:06.102Z,44.71
2023-05-07T08:14:07.644Z,43.48
2023-05-07T08:15:09.830Z,43.84
2023-05-07T08:16:11.509Z,44.61
2023-05-07T08:17:13.952Z,44.67
2023-05-07T08:18:16.164Z,45.87
2023-05-07T08:19:17.850Z,45.94
2023-05-07T08:20:19.540Z,46.18
2023-05-07T08:21:21.305Z,46.72
2023-05-07T08:22:23.850Z,45.66
2023-05-07T08:23:25.461Z,44.52
2023-05-07T08:24:27.032Z,44.60
2023-05-07T08:25:28.604Z,44.67
2023-05-07T08:26:30.270Z,44.88
2023-05-07T08:27:31.843Z,44.59
2023-05-07T08:28:33.403Z,44.43
2023-05-07T08:29:34.936Z,43.62
2023-05-07T08:31:40.411Z,43.65
2023-05-07T08:32:42.118Z,43.24
2023-05-07T08:33:43.637Z,43.58
2023-05-07T08:34:45.265Z,42.86
2023-05-07T08:35:46.865Z,42.81
2023-05-07T08:36:49.459Z,43.68
2023-05-07T08:37:51.081Z,44.32
2023-05-07T08:38:53.556Z,43.43
2023-05-07T08:39:55.104Z,45.20
2023-05-07T08:40:56.869Z,45.33
2023-05-07T08:42:01.395Z,45.20
2023-05-07T08:43:04.032Z,44.34
2023-05-07T08:44:12.670Z,44.80
2023-05-07T08:45:14.502Z,44.73
2023-05-07T08:46:21.906Z,45.13
2023-05-07T08:47:29.884Z,44.70
2023-05-07T08:48:33.639Z,43.48
2023-05-07T08:49:36.046Z,44.65
2023-05-07T08:50:37.916Z,43.61
2023-05-07T08:51:39.668Z,42.73
2023-05-07T08:52:41.925Z,42.12
2023-05-07T08:53:43.871Z,41.96
2023-05-07T08:54:45.772Z,41.98
2023-05-07T08:55:48.250Z,41.89
2023-05-07T08:56:49.926Z,41.99
2023-05-07T08:57:53.682Z,42.36
2023-05-07T08:58:57.742Z,42.45
2023-05-07T08:59:59.434Z,41.45
2023-05-07T09:01:05.066Z,40.60
2023-05-07T09:02:11.227Z,41.09
2023-05-07T09:03:13.805Z,40.33
2023-05-07T09:04:15.935Z,41.22
2023-05-07T09:05:17.656Z,41.42
2023-05-07T09:06:20.007Z,41.88
2023-05-07T09:07:22.454Z,41.17
2023-05-07T09:08:27.536Z,41.92
2023-05-07T09:09:29.051Z,40.69
2023-05-07T09:10:31.209Z,41.46
2023-05-07T09:11:32.954Z,42.51
2023-05-07T09:12:36.327Z,41.38
2023-05-07T09:13:38.813Z,41.37
2023-05-07T09:14:40.598Z,43.04
2023-05-07T09:15:42.291Z,42.74
2023-05-07T09:16:43.872Z,42.71
2023-05-07T09:17:45.635Z,41.25
2023-05-07T09:18:48.620Z,42.19
2023-05-07T09:19:50.231Z,41.55
2023-05-07T09:20:52.064Z,40.30
2023-05-07T09:22:01.993Z,40.67
2023-05-07T09:23:04.097Z,40.99
2023-05-07T09:24:06.128Z,41.33
2023-05-07T09:25:09.597Z,41.95
2023-05-07T09:26:12.997Z,41.25
2023-05-07T09:27:14.617Z,41.53
2023-05-07T09:28:16.200Z,41.49
2023-05-07T09:29:18.804Z,40.54
2023-05-07T09:30:20.347Z,39.51
2023-05-07T09:31:24.461Z,39.43
2023-05-07T09:32:26.392Z,39.19
2023-05-07T09:33:28.804Z,39.99
2023-05-07T09:34:33.438Z,39.99
2023-05-07T09:35:35.035Z,40.82
2023-05-07T09:36:36.712Z,39.86
2023-05-07T09:37:38.362Z,39.36
2023-05-07T09:38:40.465Z,39.72
2023-05-07T09:39:47.251Z,40.83
2023-05-07T09:40:48.903Z,39.44
2023-05-07T09:41:52.277Z,39.65
2023-05-07T09:42:54.475Z,39.37
2023-05-07T09:43:57.077Z,39.29
2023-05-07T09:45:00.406Z,39.06
2023-05-07T09:46:08.605Z,38.44
2023-05-07T09:47:11.680Z,38.56
2023-05-07T09:48:18.045Z,38.58
2023-05-07T09:49:24.629Z,36.54
2023-05-07T09:50:31.267Z,36.62
2023-05-07T09:51:44.223Z,36.59
2023-05-07T09:52:46.206Z,35.95
2023-05-07T09:53:49.449Z,37.19
2023-05-07T09:54:52.205Z,37.31
2023-05-07T09:55:54.025Z,37.39
2023-05-07T09:56:56.387Z,37.78
2023-05-07T09:57:59.703Z,38.02
2023-05-07T09:59:01.935Z,39.06
2023-05-07T10:00:09.033Z,37.66
2023-05-07T10:01:12.464Z,37.05
2023-05-07T10:02:15.795Z,36.88
2023-05-07T10:03:19.305Z,38.93
2023-05-07T10:04:22.108Z,37.70
2023-05-07T10:05:23.799Z,37.35
2023-05-07T10:06:26.629Z,37.09
2023-05-07T10:07:28.838Z,37.10
2023-05-07T10:08:31.756Z,36.08
2023-05-07T10:09:33.689Z,36.74
2023-05-07T10:10:35.448Z,37.84
2023-05-07T10:11:38.123Z,39.31
2023-05-07T10:12:41.608Z,37.69
2023-05-07T10:13:44.406Z,38.01
2023-05-07T10:14:47.032Z,39.24
2023-05-07T10:15:49.066Z,38.50
2023-05-07T10:16:50.964Z,38.24
2023-05-07T10:17:54.417Z,38.79
2023-05-07T10:18:56.972Z,38.98
2023-05-07T10:19:58.617Z,39.71
2023-05-07T10:21:14.796Z,39.47
2023-05-07T10:22:17.747Z,38.28
2023-05-07T10:23:24.851Z,38.56
2023-05-07T10:24:28.293Z,39.02
2023-05-07T10:25:31.809Z,39.52
2023-05-07T10:26:35.737Z,38.30
2023-05-07T10:27:38.077Z,37.61
2023-05-07T10:28:42.622Z,38.17
2023-05-07T10:29:54.294Z,37.99
2023-05-07T10:31:20.608Z,35.88
2023-05-07T10:32:27.835Z,36.10
2023-05-07T10:33:31.496Z,35.42
2023-05-07T10:34:43.230Z,35.67
2023-05-07T10:35:48.006Z,38.71
2023-05-07T10:36:51.387Z,34.77
2023-05-07T10:37:53.739Z,34.76
2023-05-07T10:38:56.317Z,33.33
2023-05-07T10:39:58.692Z,33.06
2023-05-07T10:41:00.353Z,34.50
2023-05-07T10:42:12.991Z,35.33
2023-05-07T10:43:14.737Z,34.58
2023-05-07T10:44:31.488Z,35.56
2023-05-07T10:45:33.853Z,35.58
2023-05-07T10:46:36.639Z,34.64
2023-05-07T10:48:13.763Z,35.01
2023-05-07T10:49:24.586Z,35.09
2023-05-07T10:50:26.463Z,35.30
2023-05-07T10:51:28.936Z,34.68
2023-05-07T10:52:31.322Z,35.17
2023-05-07T10:53:32.864Z,34.79
2023-05-07T10:54:37.606Z,34.24
2023-05-07T10:55:39.493Z,35.57
2023-05-07T10:56:44.125Z,35.44
2023-05-07T10:57:45.753Z,36.67
2023-05-07T10:58:47.301Z,34.25
2023-05-07T10:59:48.921Z,35.99
2023-05-07T11:00:50.681Z,33.91
2023-05-07T11:01:56.984Z,35.22
2023-05-07T11:03:01.736Z,34.65
2023-05-07T11:04:30.781Z,34.32
2023-05-07T11:05:36.625Z,33.99
2023-05-07T11:06:39.691Z,34.58
2023-05-07T11:07:41.257Z,34.30
2023-05-07T11:08:54.688Z,34.39
2023-05-07T11:09:59.492Z,35.85
2023-05-07T11:11:01.146Z,34.04
2023-05-07T11:12:02.751Z,34.61
2023-05-07T11:13:04.335Z,33.82
2023-05-07T11:14:05.944Z,32.91
2023-05-07T11:15:44.319Z,33.81
2023-05-07T11:16:46.880Z,34.15
2023-05-07T11:17:59.531Z,33.82
2023-05-07T11:19:01.181Z,34.80
2023-05-07T11:20:03.469Z,35.59
2023-05-07T11:21:05.479Z,33.84
2023-05-07T11:22:33.015Z,32.26
2023-05-07T11:23:34.549Z,32.49
2023-05-07T11:24:43.324Z,33.91
2023-05-07T11:25:44.993Z,34.17
2023-05-07T11:26:51.408Z,34.51
2023-05-07T11:27:53.512Z,33.13
2023-05-07T11:28:55.716Z,33.51
2023-05-07T11:29:57.476Z,34.20
2023-05-07T11:30:59.230Z,33.24
2023-05-07T11:32:02.213Z,33.04
2023-05-07T11:33:05.366Z,32.69
2023-05-07T11:34:07.736Z,33.00
2023-05-07T11:35:10.262Z,33.18
2023-05-07T11:36:12.533Z,33.30
2023-05-07T11:37:18.480Z,32.91
2023-05-07T11:38:20.565Z,32.95
2023-05-07T11:39:33.884Z,33.15
2023-05-07T11:40:35.460Z,32.67
2023-05-07T11:41:40.886Z,33.08
2023-05-07T11:42:44.242Z,33.08
2023-05-07T11:43:57.276Z,33.04
2023-05-07T11:44:59.530Z,33.32
2023-05-07T11:46:11.984Z,33.54
2023-05-07T11:47:19.502Z,33.56
2023-05-07T11:48:23.530Z,33.70
2023-05-07T11:49:27.933Z,32.75
2023-05-07T11:50:29.443Z,32.49
2023-05-07T11:51:31.767Z,33.27
2023-05-07T11:52:35.694Z,32.37
2023-05-07T11:53:43.450Z,32.59
2023-05-07T11:54:58.627Z,32.79
2023-05-07T11:56:00.199Z,32.91
2023-05-07T11:57:02.329Z,33.13
2023-05-07T11:58:03.926Z,33.61
2023-05-07T11:59:06.174Z,32.82
2023-05-07T12:00:08.318Z,32.41
2023-05-07T12:01:11.422Z,33.06
2023-05-07T12:02:15.079Z,32.95
2023-05-07T12:03:16.782Z,32.98
2023-05-07T12:04:22.036Z,32.77
2023-05-07T12:05:23.744Z,32.02
2023-05-07T12:06:25.334Z,33.10
2023-05-07T12:07:26.978Z,33.13
2023-05-07T12:08:28.532Z,33.25
2023-05-07T12:09:30.763Z,32.25
2023-05-07T12:10:32.429Z,33.62
2023-05-07T12:11:34.058Z,32.37
2023-05-07T12:12:47.802Z,33.37
2023-05-07T12:13:49.429Z,33.03
2023-05-07T12:14:50.976Z,33.07
2023-05-07T12:15:53.419Z,32.08
2023-05-07T12:16:55.065Z,32.48
2023-05-07T12:17:56.899Z,32.30
2023-05-07T12:18:59.983Z,32.40
2023-05-07T12:20:01.978Z,32.21
2023-05-07T12:21:05.988Z,31.98
2023-05-07T12:22:11.145Z,31.97
2023-05-07T12:23:13.782Z,32.34
2023-05-07T12:24:16.370Z,32.26
2023-05-07T12:25:21.049Z,32.12
2023-05-07T12:26:22.641Z,32.24
2023-05-07T12:27:24.435Z,32.21
2023-05-07T12:28:26.274Z,32.68
2023-05-07T12:29:28.655Z,32.18
2023-05-07T12:30:30.359Z,31.68
2023-05-07T12:31:32.123Z,32.64
2023-05-07T12:32:37.739Z,34.55
2023-05-07T12:33:39.492Z,34.67
2023-05-07T12:34:45.059Z,33.87
2023-05-07T12:35:49.036Z,31.90
2023-05-07T12:36:50.693Z,32.54
2023-05-07T12:38:00.897Z,31.84
2023-05-07T12:39:02.523Z,31.75
2023-05-07T12:40:11.249Z,32.06
2023-05-07T12:41:15.811Z,32.62
2023-05-07T12:42:20.887Z,32.92
2023-05-07T12:43:31.129Z,31.72
2023-05-07T12:44:34.223Z,31.92
2023-05-07T12:45:42.219Z,31.94
2023-05-07T12:46:43.801Z,31.47
2023-05-07T12:47:46.846Z,31.74
2023-05-07T12:48:49.423Z,31.69
2023-05-07T12:49:51.087Z,31.83
2023-05-07T12:50:54.275Z,32.07
2023-05-07T12:51:56.522Z,32.38
2023-05-07T12:52:58.167Z,32.39
2023-05-07T12:53:59.726Z,32.07
2023-05-07T12:55:10.961Z,32.40
2023-05-07T12:56:12.677Z,31.11
2023-05-07T12:57:14.220Z,30.97
2023-05-07T12:58:21.199Z,31.47
2023-05-07T12:59:35.339Z,32.17
2023-05-07T13:00:38.617Z,32.66
2023-05-07T13:01:40.436Z,31.62
2023-05-07T13:02:45.598Z,31.73
2023-05-07T13:03:51.381Z,30.88
2023-05-07T13:04:54.101Z,30.46
2023-05-07T13:06:17.144Z,30.31
2023-05-07T13:07:18.897Z,30.67
2023-05-07T13:08:33.843Z,30.45
2023-05-07T13:09:35.828Z,30.78
2023-05-07T13:10:37.432Z,30.29
2023-05-07T13:11:39.023Z,30.28
2023-05-07T13:12:40.729Z,29.07
2023-05-07T13:13:42.675Z,29.52
2023-05-07T13:14:44.228Z,30.61
2023-05-07T13:15:45.932Z,29.96
2023-05-07T13:16:48.526Z,30.41
2023-05-07T13:17:50.225Z,29.45
2023-05-07T13:18:51.967Z,30.76
2023-05-07T13:19:53.576Z,31.55
2023-05-07T13:20:55.210Z,32.06
2023-05-07T13:21:56.771Z,32.75
2023-05-07T13:22:58.250Z,33.46
2023-05-07T13:24:00.041Z,32.02
2023-05-07T13:25:01.613Z,32.99
2023-05-07T13:26:08.654Z,31.51
2023-05-07T13:27:16.690Z,31.21
2023-05-07T13:28:18.231Z,31.11
2023-05-07T13:29:19.826Z,30.60
2023-05-07T13:30:21.358Z,31.54
2023-05-07T13:31:23.036Z,32.18
2023-05-07T13:32:24.714Z,30.96